sensor_id;sensor_type;location;lat;lon;timestamp;P1;durP1;ratioP1;P2;durP2;ratioP2
31674;SDS011;18276;45.520;11.018;2023-05-14T07:30:39;2.03;;;1.67;;
31674;SDS011;18276;45.520;11.018;2023-05-14T07:33:06;4.45;;;1.60;;
31674;SDS011;18276;45.520;11.018;2023-05-14T07:35:33;4.10;;;1.55;;
31674;SDS011;18276;45.520;11.018;2023-05-14T07:38:00;4.70;;;1.80;;
31674;SDS011;18276;45.520;11.018;2023-05-14T07:40:27;4.50;;;1.90;;
31674;SDS011;18276;45.520;11.018;2023-05-14T07:42:55;4.60;;;1.65;;
31674;SDS011;18276;45.520;11.018;2023-05-14T07:45:22;7.50;;;1.70;;
31674;SDS011;18276;45.520;11.018;2023-05-14T07:47:49;3.45;;;1.42;;
31674;SDS011;18276;45.520;11.018;2023-05-14T07:50:17;2.67;;;1.67;;
31674;SDS011;18276;45.520;11.018;2023-05-14T07:52:44;2.63;;;1.40;;
31674;SDS011;18276;45.520;11.018;2023-05-14T07:55:11;3.80;;;1.40;;
31674;SDS011;18276;45.520;11.018;2023-05-14T07:57:38;6.15;;;1.98;;
31674;SDS011;18276;45.520;11.018;2023-05-14T08:00:06;7.20;;;1.98;;
31674;SDS011;18276;45.520;11.018;2023-05-14T08:02:39;4.90;;;1.65;;
31674;SDS011;18276;45.520;11.018;2023-05-14T08:05:08;5.78;;;1.70;;
31674;SDS011;18276;45.520;11.018;2023-05-14T08:07:35;3.30;;;1.77;;
31674;SDS011;18276;45.520;11.018;2023-05-14T10:16:02;7.80;;;4.20;;
31674;SDS011;18276;45.520;11.018;2023-05-14T10:18:40;6.53;;;3.20;;
31674;SDS011;18276;45.520;11.018;2023-05-14T10:21:15;7.03;;;3.70;;
31674;SDS011;18276;45.520;11.018;2023-05-14T10:23:49;6.00;;;4.32;;
31674;SDS011;18276;45.520;11.018;2023-05-14T10:26:18;4.82;;;2.55;;
31674;SDS011;18276;45.520;11.018;2023-05-14T10:28:52;6.05;;;3.70;;
31674;SDS011;18276;45.520;11.018;2023-05-14T10:34:34;6.20;;;4.38;;
31674;SDS011;18276;45.520;11.018;2023-05-14T10:42:11;4.10;;;3.20;;
31674;SDS011;18276;45.520;11.018;2023-05-14T10:44:48;5.95;;;3.95;;
31674;SDS011;18276;45.520;11.018;2023-05-14T10:47:27;5.40;;;4.90;;
31674;SDS011;18276;45.520;11.018;2023-05-14T10:49:57;7.20;;;4.53;;
31674;SDS011;18276;45.520;11.018;2023-05-14T10:52:28;6.80;;;6.10;;
31674;SDS011;18276;45.520;11.018;2023-05-14T10:54:57;5.70;;;3.92;;
31674;SDS011;18276;45.520;11.018;2023-05-14T10:57:29;7.13;;;5.55;;
31674;SDS011;18276;45.520;11.018;2023-05-14T10:59:58;5.75;;;4.07;;
31674;SDS011;18276;45.520;11.018;2023-05-14T11:02:27;7.97;;;4.85;;
31674;SDS011;18276;45.520;11.018;2023-05-14T11:05:00;5.00;;;4.03;;
31674;SDS011;18276;45.520;11.018;2023-05-14T11:07:34;4.60;;;4.05;;
31674;SDS011;18276;45.520;11.018;2023-05-14T11:12:37;6.43;;;4.28;;
31674;SDS011;18276;45.520;11.018;2023-05-14T11:15:13;4.70;;;4.07;;
31674;SDS011;18276;45.520;11.018;2023-05-14T11:17:47;8.15;;;4.63;;
31674;SDS011;18276;45.520;11.018;2023-05-14T11:20:14;5.30;;;4.10;;
31674;SDS011;18276;45.520;11.018;2023-05-14T11:22:42;6.07;;;4.28;;
31674;SDS011;18276;45.520;11.018;2023-05-14T11:25:11;5.63;;;4.50;;
31674;SDS011;18276;45.520;11.018;2023-05-14T11:27:43;5.85;;;4.30;;
31674;SDS011;18276;45.520;11.018;2023-05-14T11:30:14;5.95;;;4.30;;
31674;SDS011;18276;45.520;11.018;2023-05-14T11:32:46;5.38;;;4.10;;
31674;SDS011;18276;45.520;11.018;2023-05-14T11:35:15;6.65;;;4.80;;
31674;SDS011;18276;45.520;11.018;2023-05-14T11:37:48;7.63;;;5.00;;
31674;SDS011;18276;45.520;11.018;2023-05-14T11:40:19;4.40;;;4.00;;
31674;SDS011;18276;45.520;11.018;2023-05-14T11:42:47;5.03;;;4.18;;
31674;SDS011;18276;45.520;11.018;2023-05-14T11:45:23;7.63;;;5.10;;
31674;SDS011;18276;45.520;11.018;2023-05-14T11:47:52;5.88;;;4.72;;
31674;SDS011;18276;45.520;11.018;2023-05-14T11:50:20;5.35;;;4.38;;
31674;SDS011;18276;45.520;11.018;2023-05-14T11:52:48;5.22;;;4.25;;
31674;SDS011;18276;45.520;11.018;2023-05-14T11:55:16;16.35;;;4.82;;
31674;SDS011;18276;45.520;11.018;2023-05-14T11:57:43;5.90;;;4.03;;
31674;SDS011;18276;45.520;11.018;2023-05-14T12:00:10;5.60;;;3.80;;
31674;SDS011;18276;45.520;11.018;2023-05-14T12:02:47;4.53;;;4.13;;
31674;SDS011;18276;45.520;11.018;2023-05-14T12:05:17;5.78;;;4.15;;
31674;SDS011;18276;45.520;11.018;2023-05-14T12:07:46;4.82;;;4.28;;
31674;SDS011;18276;45.520;11.018;2023-05-14T12:10:16;6.93;;;4.78;;
31674;SDS011;18276;45.520;11.018;2023-05-14T12:12:44;7.72;;;5.32;;
31674;SDS011;18276;45.520;11.018;2023-05-14T12:15:14;5.95;;;5.03;;
31674;SDS011;18276;45.520;11.018;2023-05-14T12:17:48;6.03;;;4.00;;
31674;SDS011;18276;45.520;11.018;2023-05-14T12:20:16;6.00;;;4.43;;
31674;SDS011;18276;45.520;11.018;2023-05-14T12:22:43;6.22;;;4.88;;
31674;SDS011;18276;45.520;11.018;2023-05-14T12:25:11;6.38;;;4.30;;
31674;SDS011;18276;45.520;11.018;2023-05-14T12:27:39;4.22;;;3.83;;
31674;SDS011;18276;45.520;11.018;2023-05-14T12:30:07;10.60;;;7.38;;
31674;SDS011;18276;45.520;11.018;2023-05-14T12:32:37;9.30;;;5.15;;
31674;SDS011;18276;45.520;11.018;2023-05-14T12:35:06;5.97;;;4.28;;
31674;SDS011;18276;45.520;11.018;2023-05-14T12:37:34;7.05;;;4.28;;
31674;SDS011;18276;45.520;11.018;2023-05-14T12:40:03;10.70;;;6.22;;
31674;SDS011;18276;45.520;11.018;2023-05-14T12:42:35;7.43;;;6.40;;
31674;SDS011;18276;45.520;11.018;2023-05-14T12:45:03;5.97;;;4.57;;
31674;SDS011;18276;45.520;11.018;2023-05-14T12:47:33;5.72;;;4.75;;
31674;SDS011;18276;45.520;11.018;2023-05-14T12:50:01;5.03;;;4.13;;
31674;SDS011;18276;45.520;11.018;2023-05-14T12:52:29;7.47;;;4.65;;
31674;SDS011;18276;45.520;11.018;2023-05-14T12:54:59;4.80;;;4.03;;
31674;SDS011;18276;45.520;11.018;2023-05-14T12:57:26;6.80;;;4.60;;
31674;SDS011;18276;45.520;11.018;2023-05-14T12:59:55;7.65;;;4.93;;
31674;SDS011;18276;45.520;11.018;2023-05-14T13:02:22;4.28;;;3.88;;
31674;SDS011;18276;45.520;11.018;2023-05-14T13:04:49;4.63;;;4.18;;
31674;SDS011;18276;45.520;11.018;2023-05-14T13:07:16;6.07;;;3.90;;
31674;SDS011;18276;45.520;11.018;2023-05-14T13:09:43;8.70;;;5.30;;
31674;SDS011;18276;45.520;11.018;2023-05-14T13:12:10;6.13;;;5.22;;
31674;SDS011;18276;45.520;11.018;2023-05-14T13:14:38;6.78;;;4.72;;
31674;SDS011;18276;45.520;11.018;2023-05-14T13:17:05;13.55;;;8.68;;
31674;SDS011;18276;45.520;11.018;2023-05-14T13:19:33;7.03;;;5.57;;
31674;SDS011;18276;45.520;11.018;2023-05-14T13:22:00;6.72;;;5.60;;
31674;SDS011;18276;45.520;11.018;2023-05-14T13:24:27;5.50;;;4.88;;
31674;SDS011;18276;45.520;11.018;2023-05-14T13:26:54;6.03;;;4.82;;
31674;SDS011;18276;45.520;11.018;2023-05-14T13:29:22;4.53;;;3.75;;
31674;SDS011;18276;45.520;11.018;2023-05-14T13:31:49;6.05;;;4.93;;
31674;SDS011;18276;45.520;11.018;2023-05-14T13:34:16;7.10;;;4.85;;
31674;SDS011;18276;45.520;11.018;2023-05-14T13:36:43;6.80;;;5.10;;
31674;SDS011;18276;45.520;11.018;2023-05-14T13:39:12;10.32;;;5.32;;
31674;SDS011;18276;45.520;11.018;2023-05-14T13:41:40;6.72;;;5.28;;
31674;SDS011;18276;45.520;11.018;2023-05-14T13:44:07;9.40;;;6.15;;
31674;SDS011;18276;45.520;11.018;2023-05-14T13:46:34;7.68;;;4.90;;
31674;SDS011;18276;45.520;11.018;2023-05-14T13:49:01;6.75;;;4.70;;
31674;SDS011;18276;45.520;11.018;2023-05-14T13:51:28;5.38;;;4.20;;
31674;SDS011;18276;45.520;11.018;2023-05-14T13:53:55;4.10;;;3.70;;
31674;SDS011;18276;45.520;11.018;2023-05-14T13:56:22;6.68;;;4.35;;
31674;SDS011;18276;45.520;11.018;2023-05-14T13:58:49;5.53;;;4.38;;
31674;SDS011;18276;45.520;11.018;2023-05-14T14:01:16;9.90;;;8.02;;
31674;SDS011;18276;45.520;11.018;2023-05-14T14:03:43;4.45;;;3.92;;
31674;SDS011;18276;45.520;11.018;2023-05-14T14:06:10;6.13;;;4.30;;
31674;SDS011;18276;45.520;11.018;2023-05-14T14:08:37;10.02;;;6.38;;
31674;SDS011;18276;45.520;11.018;2023-05-14T14:11:04;10.57;;;6.47;;
31674;SDS011;18276;45.520;11.018;2023-05-14T14:13:31;4.65;;;4.15;;
31674;SDS011;18276;45.520;11.018;2023-05-14T14:15:58;6.22;;;4.78;;
31674;SDS011;18276;45.520;11.018;2023-05-14T14:18:25;7.25;;;5.68;;
31674;SDS011;18276;45.520;11.018;2023-05-14T21:42:34;11.55;;;8.18;;
31674;SDS011;18276;45.520;11.018;2023-05-14T21:45:01;11.75;;;8.48;;
31674;SDS011;18276;45.520;11.018;2023-05-14T21:47:28;11.45;;;8.95;;
31674;SDS011;18276;45.520;11.018;2023-05-14T21:49:55;12.15;;;9.63;;
31674;SDS011;18276;45.520;11.018;2023-05-14T21:52:22;18.83;;;9.95;;
31674;SDS011;18276;45.520;11.018;2023-05-14T21:54:49;12.02;;;9.85;;
31674;SDS011;18276;45.520;11.018;2023-05-14T21:57:16;13.45;;;9.75;;
31674;SDS011;18276;45.520;11.018;2023-05-14T21:59:43;11.93;;;8.90;;
31674;SDS011;18276;45.520;11.018;2023-05-14T22:02:10;15.68;;;9.63;;
31674;SDS011;18276;45.520;11.018;2023-05-14T22:04:37;15.15;;;8.88;;
31674;SDS011;18276;45.520;11.018;2023-05-14T22:07:04;13.02;;;9.25;;
31674;SDS011;18276;45.520;11.018;2023-05-14T22:09:31;14.18;;;9.45;;
31674;SDS011;18276;45.520;11.018;2023-05-14T22:11:58;14.00;;;9.35;;
31674;SDS011;18276;45.520;11.018;2023-05-14T22:14:25;14.68;;;8.48;;
31674;SDS011;18276;45.520;11.018;2023-05-14T22:16:52;12.02;;;8.13;;
31674;SDS011;18276;45.520;11.018;2023-05-14T22:19:20;16.77;;;8.77;;
31674;SDS011;18276;45.520;11.018;2023-05-14T22:21:47;12.43;;;9.10;;
31674;SDS011;18276;45.520;11.018;2023-05-14T22:24:14;12.55;;;9.18;;
31674;SDS011;18276;45.520;11.018;2023-05-14T22:26:41;11.45;;;9.15;;
31674;SDS011;18276;45.520;11.018;2023-05-14T22:29:08;12.75;;;9.10;;
31674;SDS011;18276;45.520;11.018;2023-05-14T22:31:35;14.05;;;8.38;;
31674;SDS011;18276;45.520;11.018;2023-05-14T22:34:02;12.32;;;8.88;;
31674;SDS011;18276;45.520;11.018;2023-05-14T22:36:29;10.50;;;8.35;;
31674;SDS011;18276;45.520;11.018;2023-05-14T22:38:56;9.35;;;7.45;;
31674;SDS011;18276;45.520;11.018;2023-05-14T22:41:23;11.65;;;8.02;;
31674;SDS011;18276;45.520;11.018;2023-05-14T22:43:52;12.27;;;8.05;;
31674;SDS011;18276;45.520;11.018;2023-05-14T22:46:19;12.52;;;8.07;;
31674;SDS011;18276;45.520;11.018;2023-05-14T22:48:46;13.68;;;9.30;;
31674;SDS011;18276;45.520;11.018;2023-05-14T22:51:14;12.55;;;8.77;;
31674;SDS011;18276;45.520;11.018;2023-05-14T22:53:41;12.23;;;7.88;;
31674;SDS011;18276;45.520;11.018;2023-05-14T22:56:09;11.93;;;8.07;;
31674;SDS011;18276;45.520;11.018;2023-05-14T22:58:36;11.32;;;8.13;;
31674;SDS011;18276;45.520;11.018;2023-05-14T23:01:03;10.60;;;8.00;;
31674;SDS011;18276;45.520;11.018;2023-05-14T23:03:30;12.60;;;7.95;;
31674;SDS011;18276;45.520;11.018;2023-05-14T23:05:57;10.88;;;8.10;;
31674;SDS011;18276;45.520;11.018;2023-05-14T23:08:24;9.77;;;7.63;;
31674;SDS011;18276;45.520;11.018;2023-05-14T23:10:51;9.52;;;7.10;;
31674;SDS011;18276;45.520;11.018;2023-05-14T23:13:18;12.48;;;9.07;;
31674;SDS011;18276;45.520;11.018;2023-05-14T23:15:45;10.02;;;8.20;;
31674;SDS011;18276;45.520;11.018;2023-05-14T23:18:13;9.05;;;6.70;;
31674;SDS011;18276;45.520;11.018;2023-05-14T23:20:40;9.35;;;7.25;;
31674;SDS011;18276;45.520;11.018;2023-05-14T23:23:07;16.52;;;6.65;;
31674;SDS011;18276;45.520;11.018;2023-05-14T23:25:34;9.88;;;6.68;;
31674;SDS011;18276;45.520;11.018;2023-05-14T23:28:01;14.65;;;7.60;;
